Time;durP1;ratioP1;P1;durP2;ratioP2;P2;SDS_P1;SDS_P2;PMS_P1;PMS_P2;Temp;Humidity;BMP_temperature;BMP_pressure;BME280_temperature;BME280_humidity;BME280_pressure;Samples;Min_cycle;Max_cycle;Signal;HPM_P1;HPM_P2
2023/09/07 00:02:40;;;;;;;12.82;6.00;;;;;;;;;;4958979;28;20052;-84
2023/09/07 00:05:15;;;;;;;13.18;6.07;;;;;;;;;;4936087;29;20054;-84
2023/09/07 00:07:48;;;;;;;13.77;4.65;;;;;;;;;;4936022;29;20051;-82
2023/09/07 00:10:21;;;;;;;10.82;5.00;;;;;;;;;;4936745;29;20051;-82
2023/09/07 00:12:51;;;;;;;10.23;4.85;;;;;;;;;;4936766;29;20058;-83
2023/09/07 00:15:26;;;;;;;13.55;5.43;;;;;;;;;;4936592;29;20058;-84
2023/09/07 00:17:58;;;;;;;12.23;5.90;;;;;;;;;;4954040;29;20494;-85
2023/09/07 00:20:29;;;;;;;12.63;5.38;;;;;;;;;;4953920;29;20035;-84
2023/09/07 00:23:00;;;;;;;10.82;5.45;;;;;;;;;;4936851;29;20055;-87
2023/09/07 00:25:32;;;;;;;10.43;4.93;;;;;;;;;;4936663;29;20050;-86
2023/09/07 00:28:06;;;;;;;11.15;4.60;;;;;;;;;;4939260;29;20055;-85
2023/09/07 00:30:41;;;;;;;10.88;5.32;;;;;;;;;;4956065;29;20036;-84
2023/09/07 00:33:14;;;;;;;10.27;4.70;;;;;;;;;;4940304;29;20072;-83
2023/09/07 00:35:46;;;;;;;10.80;5.40;;;;;;;;;;4938736;29;20050;-85
2023/09/07 00:38:17;;;;;;;11.40;5.10;;;;;;;;;;4957065;29;20490;-84
2023/09/07 00:40:51;;;;;;;9.40;4.88;;;;;;;;;;4939663;29;20047;-83
2023/09/07 00:43:21;;;;;;;10.48;4.97;;;;;;;;;;4955175;29;20043;-83
2023/09/07 00:45:55;;;;;;;10.57;4.90;;;;;;;;;;4948050;28;20050;-83
2023/09/07 00:48:27;;;;;;;10.27;5.10;;;;;;;;;;4960007;28;20042;-84
2023/09/07 00:51:00;;;;;;;10.68;4.63;;;;;;;;;;4958132;28;20420;-83
2023/09/07 00:53:31;;;;;;;9.55;3.92;;;;;;;;;;4942803;28;20050;-84
2023/09/07 00:56:05;;;;;;;9.70;4.43;;;;;;;;;;4976397;28;20366;-83
2023/09/07 00:58:38;;;;;;;9.52;4.32;;;;;;;;;;4958576;28;20046;-82
2023/09/07 01:01:10;;;;;;;10.60;4.90;;;;;;;;;;4943396;28;20050;-85
2023/09/07 01:03:42;;;;;;;8.82;4.90;;;;;;;;;;4958666;28;20055;-87
2023/09/07 01:06:22;;;;;;;9.45;5.00;;;;;;;;;;4943255;28;20051;-83
2023/09/07 01:08:57;;;;;;;12.20;4.95;;;;;;;;;;4958316;28;20074;-83
2023/09/07 01:11:37;;;;;;;10.75;4.45;;;;;;;;;;4943521;28;20046;-81
2023/09/07 01:14:07;;;;;;;10.43;4.80;;;;;;;;;;4976377;28;20039;-82
2023/09/07 01:16:40;;;;;;;11.00;4.80;;;;;;;;;;4958580;28;20358;-82
2023/09/07 01:19:15;;;;;;;9.15;4.65;;;;;;;;;;4958362;28;20490;-82
2023/09/07 01:21:46;;;;;;;9.80;4.65;;;;;;;;;;4976334;28;20054;-86
2023/09/07 01:24:22;;;;;;;10.38;4.95;;;;;;;;;;4958944;28;20050;-81
2023/09/07 01:26:54;;;;;;;9.98;5.10;;;;;;;;;;4959152;28;20034;-82
2023/09/07 01:29:29;;;;;;;9.40;4.65;;;;;;;;;;4958116;28;20050;-84
2023/09/07 01:32:00;;;;;;;9.70;4.10;;;;;;;;;;4942552;28;20050;-85
2023/09/07 01:34:31;;;;;;;8.85;4.13;;;;;;;;;;4942098;28;20047;-84
2023/09/07 01:37:04;;;;;;;10.18;4.70;;;;;;;;;;4957370;28;20046;-85
2023/09/07 01:39:36;;;;;;;11.73;4.50;;;;;;;;;;4974476;28;20042;-84
2023/09/07 01:42:08;;;;;;;8.68;4.40;;;;;;;;;;4939125;29;20051;-84
2023/09/07 01:44:41;;;;;;;9.32;4.60;;;;;;;;;;4938629;29;20047;-84
2023/09/07 01:47:15;;;;;;;9.43;4.68;;;;;;;;;;4923791;29;20495;-86
2023/09/07 01:49:49;;;;;;;9.80;4.20;;;;;;;;;;4940155;29;20047;-85
2023/09/07 01:52:24;;;;;;;9.93;4.68;;;;;;;;;;4933507;28;20046;-83
2023/09/07 01:54:56;;;;;;;9.52;4.40;;;;;;;;;;4936662;28;20058;-84
2023/09/07 01:57:29;;;;;;;9.73;4.60;;;;;;;;;;4949738;28;20050;-84
2023/09/07 02:00:05;;;;;;;9.52;4.28;;;;;;;;;;4956960;28;20046;-85
2023/09/07 02:02:40;;;;;;;10.45;4.30;;;;;;;;;;4960118;28;20054;-84
2023/09/07 02:05:12;;;;;;;8.63;4.22;;;;;;;;;;4957884;28;20586;-84
2023/09/07 02:07:45;;;;;;;9.93;4.60;;;;;;;;;;4943682;28;20043;-85
2023/09/07 02:10:18;;;;;;;9.13;5.10;;;;;;;;;;4943766;28;20113;-84
2023/09/07 02:12:48;;;;;;;8.02;4.43;;;;;;;;;;4961370;28;20041;-83
2023/09/07 02:15:21;;;;;;;9.50;4.45;;;;;;;;;;4967220;28;20043;-85
2023/09/07 02:17:52;;;;;;;8.80;4.30;;;;;;;;;;4983652;28;20971;-85
2023/09/07 02:20:24;;;;;;;8.98;4.43;;;;;;;;;;4981602;28;20067;-84
2023/09/07 02:22:55;;;;;;;9.90;4.03;;;;;;;;;;4966610;28;20039;-85
2023/09/07 02:25:25;;;;;;;9.98;3.80;;;;;;;;;;4967066;28;20031;-84
2023/09/07 02:27:56;;;;;;;8.60;4.55;;;;;;;;;;4966301;28;20039;-86
2023/09/07 02:30:29;;;;;;;13.75;4.43;;;;;;;;;;4943924;28;20051;-85
2023/09/07 02:33:04;;;;;;;8.35;4.10;;;;;;;;;;4943878;28;20496;-84
2023/09/07 02:35:37;;;;;;;8.02;3.55;;;;;;;;;;4942785;28;20492;-84
2023/09/07 02:38:08;;;;;;;10.27;4.30;;;;;;;;;;4943206;28;20051;-86
2023/09/07 02:40:43;;;;;;;8.27;3.97;;;;;;;;;;4958323;28;20374;-86
2023/09/07 02:43:16;;;;;;;9.73;3.95;;;;;;;;;;4958917;28;20035;-84
2023/09/07 02:45:50;;;;;;;7.68;3.35;;;;;;;;;;4942909;28;20069;-86
2023/09/07 02:48:25;;;;;;;9.02;4.03;;;;;;;;;;4942820;28;20042;-83
2023/09/07 02:50:58;;;;;;;7.70;4.00;;;;;;;;;;4958420;28;20458;-83
2023/09/07 02:53:30;;;;;;;8.40;4.15;;;;;;;;;;4943055;28;20046;-86
2023/09/07 02:56:04;;;;;;;7.65;3.70;;;;;;;;;;4942596;28;20043;-83
2023/09/07 02:58:37;;;;;;;7.30;4.10;;;;;;;;;;4942549;28;20445;-83
2023/09/07 03:01:14;;;;;;;10.65;3.90;;;;;;;;;;4943082;28;20050;-84
2023/09/07 03:03:44;;;;;;;8.40;3.80;;;;;;;;;;4941914;28;20053;-84
2023/09/07 03:06:18;;;;;;;8.40;3.97;;;;;;;;;;4942151;28;20047;-83
2023/09/07 03:08:56;;;;;;;7.03;3.03;;;;;;;;;;4942667;28;20073;-83
2023/09/07 03:11:33;;;;;;;10.82;3.53;;;;;;;;;;4941855;28;20051;-84
2023/09/07 03:14:05;;;;;;;9.55;3.83;;;;;;;;;;4956665;28;20047;-84
2023/09/07 03:16:40;;;;;;;9.02;3.65;;;;;;;;;;4942548;28;20050;-85
2023/09/07 03:19:13;;;;;;;;;;;;;;;;;;4957356;28;20057;-84
2023/09/07 03:21:43;;;;;;;11.45;3.97;;;;;;;;;;4957010;28;19933;-84
2023/09/07 03:24:15;;;;;;;7.90;3.47;;;;;;;;;;4957706;28;20050;-86
2023/09/07 03:26:51;;;;;;;7.93;2.97;;;;;;;;;;4956779;28;20065;-84
2023/09/07 03:29:23;;;;;;;7.82;3.22;;;;;;;;;;4957143;28;20516;-86
2023/09/07 03:31:54;;;;;;;10.93;3.42;;;;;;;;;;4941595;28;20047;-84
2023/09/07 03:34:24;;;;;;;7.03;3.45;;;;;;;;;;4958280;28;20050;-84
2023/09/07 03:36:59;;;;;;;6.28;3.08;;;;;;;;;;4942276;28;20046;-85
2023/09/07 03:39:30;;;;;;;;;;;;;;;;;;4958838;28;20374;-84
2023/09/07 03:42:00;;;;;;;9.05;3.38;;;;;;;;;;4957967;28;19918;-85
2023/09/07 03:44:31;;;;;;;8.00;3.13;;;;;;;;;;4941572;28;20057;-85
2023/09/07 03:47:04;;;;;;;6.15;2.70;;;;;;;;;;4956735;28;20051;-84
2023/09/07 03:49:36;;;;;;;6.93;3.00;;;;;;;;;;4957046;28;20401;-84
2023/09/07 03:52:07;;;;;;;7.43;2.92;;;;;;;;;;4974820;28;20043;-84
2023/09/07 03:54:40;;;;;;;6.90;3.00;;;;;;;;;;4956480;28;20053;-84
2023/09/07 03:57:12;;;;;;;7.68;3.00;;;;;;;;;;4956677;28;20054;-84
2023/09/07 03:59:44;;;;;;;5.78;2.65;;;;;;;;;;4956780;28;20054;-85
2023/09/07 04:02:17;;;;;;;5.95;3.17;;;;;;;;;;4956266;28;20057;-84
2023/09/07 04:04:53;;;;;;;7.70;3.03;;;;;;;;;;4974242;28;20049;-82
2023/09/07 04:07:24;;;;;;;5.78;2.67;;;;;;;;;;4940547;28;20047;-84
2023/09/07 04:09:55;;;;;;;2.75;1.38;;;;;;;;;;4940976;28;20508;-85
2023/09/07 04:12:27;;;;;;;4.88;1.95;;;;;;;;;;4975076;28;20458;-85
2023/09/07 04:14:57;;;;;;;6.72;2.90;;;;;;;;;;4941058;28;20074;-84
2023/09/07 04:17:39;;;;;;;9.23;3.25;;;;;;;;;;4941488;28;20355;-84
2023/09/07 04:20:17;;;;;;;5.05;2.00;;;;;;;;;;4948419;29;20397;-82
2023/09/07 04:22:48;;;;;;;5.30;2.20;;;;;;;;;;4937834;29;20370;-84
2023/09/07 04:25:20;;;;;;;6.85;2.75;;;;;;;;;;4937210;29;20047;-83
2023/09/07 04:27:52;;;;;;;5.60;2.35;;;;;;;;;;4922476;29;20043;-84
2023/09/07 04:30:23;;;;;;;9.90;2.30;;;;;;;;;;4937665;29;20055;-84
2023/09/07 04:32:54;;;;;;;7.18;2.22;;;;;;;;;;4936720;29;20039;-83
2023/09/07 04:35:30;;;;;;;;;;;;;;;;;;4922327;29;20051;-85
2023/09/07 04:38:26;;;;;;;6.28;2.45;;;;;;;;;;4937356;29;19918;-82
2023/09/07 04:41:10;;;;;;;5.47;2.67;;;;;;;;;;4937003;29;20058;-84
2023/09/07 04:43:43;;;;;;;4.25;2.15;;;;;;;;;;4937128;29;20371;-84
2023/09/07 04:46:16;;;;;;;7.75;2.10;;;;;;;;;;4938534;29;20059;-86
2023/09/07 04:48:52;;;;;;;5.22;2.17;;;;;;;;;;4937073;29;20055;-85
2023/09/07 04:51:25;;;;;;;5.03;1.63;;;;;;;;;;4937215;29;20380;-84
2023/09/07 04:53:57;;;;;;;8.38;1.90;;;;;;;;;;4937302;29;20043;-83
2023/09/07 04:56:28;;;;;;;7.00;2.25;;;;;;;;;;4940596;29;20047;-87
2023/09/07 04:59:01;;;;;;;4.55;2.00;;;;;;;;;;4939817;29;20047;-85
2023/09/07 05:01:33;;;;;;;5.03;2.20;;;;;;;;;;4936999;29;20047;-85
2023/09/07 05:04:04;;;;;;;5.40;1.65;;;;;;;;;;4921735;29;20371;-85
2023/09/07 05:06:37;;;;;;;3.00;1.30;;;;;;;;;;4937146;29;20054;-85
2023/09/07 05:09:08;;;;;;;4.45;1.83;;;;;;;;;;4954888;28;20043;-83
2023/09/07 05:11:40;;;;;;;3.05;1.27;;;;;;;;;;4921962;29;20055;-84
2023/09/07 05:14:10;;;;;;;3.55;1.48;;;;;;;;;;4939372;29;20489;-85
2023/09/07 05:16:44;;;;;;;4.32;1.67;;;;;;;;;;4925890;29;20039;-82
2023/09/07 05:19:15;;;;;;;3.65;1.50;;;;;;;;;;4940510;29;20050;-84
2023/09/07 05:21:46;;;;;;;4.82;1.52;;;;;;;;;;4940793;29;20051;-87
2023/09/07 05:24:16;;;;;;;5.63;1.90;;;;;;;;;;4925191;29;20336;-84
2023/09/07 05:26:48;;;;;;;3.90;1.33;;;;;;;;;;4939881;29;20051;-86
2023/09/07 05:29:21;;;;;;;3.78;1.60;;;;;;;;;;4925075;29;20498;-85
2023/09/07 05:31:55;;;;;;;4.18;1.73;;;;;;;;;;4924429;29;20039;-85
2023/09/07 05:34:28;;;;;;;3.83;1.50;;;;;;;;;;4939915;29;20043;-84
2023/09/07 05:36:58;;;;;;;2.25;0.95;;;;;;;;;;4925316;29;20497;-85
2023/09/07 05:39:32;;;;;;;4.68;1.40;;;;;;;;;;4924717;29;20051;-86
2023/09/07 05:42:03;;;;;;;4.35;1.40;;;;;;;;;;4924568;29;20418;-84
2023/09/07 05:44:34;;;;;;;3.45;1.52;;;;;;;;;;4939975;29;20054;-85
2023/09/07 05:47:07;;;;;;;3.17;1.23;;;;;;;;;;4924279;29;20058;-84
2023/09/07 05:49:37;;;;;;;2.72;1.23;;;;;;;;;;4924194;29;20047;-84
2023/09/07 05:52:10;;;;;;;3.95;1.27;;;;;;;;;;4939857;29;20398;-82
2023/09/07 05:54:40;;;;;;;2.53;1.00;;;;;;;;;;4940206;29;20047;-82
2023/09/07 05:57:12;;;;;;;2.97;1.30;;;;;;;;;;4924851;29;20051;-85
2023/09/07 05:59:46;;;;;;;5.50;1.35;;;;;;;;;;4940034;29;20356;-82
2023/09/07 06:02:19;;;;;;;2.17;0.98;;;;;;;;;;4950106;28;20050;-83
2023/09/07 06:04:49;;;;;;;2.53;1.00;;;;;;;;;;4942781;28;20051;-84
2023/09/07 06:07:26;;;;;;;2.85;1.42;;;;;;;;;;4948639;28;20047;-84
2023/09/07 06:09:58;;;;;;;5.45;1.20;;;;;;;;;;4950971;29;20054;-85
2023/09/07 06:12:32;;;;;;;2.67;1.10;;;;;;;;;;4938913;29;20370;-84
2023/09/07 06:15:04;;;;;;;3.78;0.98;;;;;;;;;;4939347;29;20486;-82
2023/09/07 06:17:35;;;;;;;2.42;1.00;;;;;;;;;;4957233;29;20043;-84
2023/09/07 06:20:08;;;;;;;2.00;0.80;;;;;;;;;;4939224;29;20046;-84
2023/09/07 06:22:45;;;;;;;2.50;1.08;;;;;;;;;;4924329;29;20078;-84
2023/09/07 06:25:17;;;;;;;3.60;0.90;;;;;;;;;;4938768;29;20043;-82
2023/09/07 06:27:51;;;;;;;2.53;0.90;;;;;;;;;;4938769;29;20058;-83
2023/09/07 06:30:28;;;;;;;2.22;0.80;;;;;;;;;;4923647;29;20047;-82
2023/09/07 06:33:01;;;;;;;3.20;0.90;;;;;;;;;;4923231;29;20232;-85
2023/09/07 06:35:34;;;;;;;2.22;1.02;;;;;;;;;;4923627;29;20069;-80
2023/09/07 06:38:04;;;;;;;2.42;1.05;;;;;;;;;;4923368;29;20482;-83
2023/09/07 06:40:34;;;;;;;2.10;0.45;;;;;;;;;;4939641;29;20513;-83
2023/09/07 06:43:06;;;;;;;2.85;0.80;;;;;;;;;;4923523;29;20054;-85
2023/09/07 06:45:38;;;;;;;1.75;0.70;;;;;;;;;;4923000;29;20065;-82
2023/09/07 06:48:09;;;;;;;1.63;0.80;;;;;;;;;;4923541;29;20043;-84
2023/09/07 06:50:40;;;;;;;;;;;;;;;;;;4923745;29;20054;-82
2023/09/07 06:53:12;;;;;;;2.22;0.90;;;;;;;;;;4956302;29;19918;-83
2023/09/07 06:59:04;;;;;;;1.50;0.63;;;;;;;;;;4968364;28;20047;-83
2023/09/07 07:01:37;;;;;;;2.88;0.90;;;;;;;;;;4942484;28;20375;-84
2023/09/07 07:04:11;;;;;;;1.55;0.68;;;;;;;;;;4957403;28;20504;-84
2023/09/07 07:06:44;;;;;;;1.60;0.60;;;;;;;;;;4956874;28;20051;-83
2023/09/07 07:09:16;;;;;;;2.95;1.23;;;;;;;;;;4957226;28;20078;-86
2023/09/07 07:11:49;;;;;;;1.58;0.82;;;;;;;;;;4942287;28;20051;-83
2023/09/07 07:14:23;;;;;;;3.30;1.13;;;;;;;;;;4941097;28;20055;-83
2023/09/07 07:16:53;;;;;;;1.63;0.70;;;;;;;;;;4942393;28;20066;-83
2023/09/07 07:19:25;;;;;;;2.13;0.77;;;;;;;;;;4942433;28;20046;-85
2023/09/07 07:21:55;;;;;;;2.47;0.93;;;;;;;;;;4941267;28;20050;-85
2023/09/07 07:24:27;;;;;;;2.85;0.80;;;;;;;;;;4941976;28;20047;-85
2023/09/07 07:27:00;;;;;;;1.80;0.70;;;;;;;;;;4957658;28;20050;-85
2023/09/07 07:29:35;;;;;;;2.05;0.90;;;;;;;;;;4957297;28;20043;-83
2023/09/07 07:32:11;;;;;;;2.85;0.90;;;;;;;;;;4942415;28;20043;-85
2023/09/07 07:34:43;;;;;;;3.95;1.27;;;;;;;;;;4960238;28;20470;-83
2023/09/07 07:37:16;;;;;;;2.13;1.00;;;;;;;;;;4972131;28;20056;-84
2023/09/07 07:39:47;;;;;;;2.30;0.93;;;;;;;;;;4981432;28;20027;-83
2023/09/07 07:42:18;;;;;;;3.45;1.23;;;;;;;;;;4966101;28;20035;-85
2023/09/07 07:44:51;;;;;;;2.15;0.90;;;;;;;;;;4981530;28;20061;-84
2023/09/07 07:47:23;;;;;;;3.50;1.13;;;;;;;;;;4965841;28;20041;-84
2023/09/07 07:49:54;;;;;;;2.17;0.98;;;;;;;;;;4981539;28;20038;-84
2023/09/07 07:52:29;;;;;;;3.05;1.25;;;;;;;;;;4952145;28;20075;-83
2023/09/07 07:55:02;;;;;;;3.67;1.25;;;;;;;;;;4956732;28;20054;-83
2023/09/07 07:57:36;;;;;;;2.30;0.85;;;;;;;;;;4956589;28;20050;-83
2023/09/07 08:00:10;;;;;;;2.78;1.20;;;;;;;;;;4941653;28;20058;-85
2023/09/07 08:02:48;;;;;;;4.40;1.52;;;;;;;;;;4956367;28;20050;-83
2023/09/07 08:05:18;;;;;;;3.00;1.17;;;;;;;;;;4956412;28;20038;-83
2023/09/07 08:07:53;;;;;;;3.58;1.40;;;;;;;;;;4942435;28;20062;-86
2023/09/07 08:10:24;;;;;;;3.63;1.55;;;;;;;;;;4974446;28;20062;-84
2023/09/07 08:13:00;;;;;;;3.33;1.55;;;;;;;;;;4956507;28;20051;-84
2023/09/07 08:15:35;;;;;;;3.20;1.30;;;;;;;;;;4940909;28;20065;-81
2023/09/07 08:18:08;;;;;;;4.30;1.50;;;;;;;;;;4956148;28;20388;-85
2023/09/07 08:20:41;;;;;;;3.95;1.63;;;;;;;;;;4957034;28;20050;-83
2023/09/07 08:23:13;;;;;;;4.70;1.80;;;;;;;;;;4974440;28;20049;-84
2023/09/07 08:25:48;;;;;;;3.80;1.50;;;;;;;;;;4956818;28;20504;-83
2023/09/07 08:28:20;;;;;;;2.80;1.33;;;;;;;;;;4940064;28;20058;-84
2023/09/07 08:30:55;;;;;;;5.30;2.08;;;;;;;;;;4940821;28;20062;-83
2023/09/07 08:33:30;;;;;;;4.88;2.08;;;;;;;;;;4974291;28;20327;-84
2023/09/07 08:36:04;;;;;;;3.28;1.50;;;;;;;;;;4940853;28;20588;-85
2023/09/07 08:38:35;;;;;;;3.20;1.60;;;;;;;;;;4955927;28;20051;-84
2023/09/07 08:41:06;;;;;;;3.97;1.92;;;;;;;;;;4956634;28;20467;-84
2023/09/07 08:43:47;;;;;;;4.22;2.03;;;;;;;;;;4940821;28;20043;-84
2023/09/07 08:46:30;;;;;;;3.97;1.75;;;;;;;;;;4941313;28;20043;-84
2023/09/07 08:49:02;;;;;;;3.33;1.67;;;;;;;;;;4958405;28;20458;-86
2023/09/07 08:51:32;;;;;;;4.43;2.05;;;;;;;;;;4978198;28;20497;-85
2023/09/07 08:54:10;;;;;;;8.43;1.90;;;;;;;;;;4944856;28;20482;-85
2023/09/07 08:56:42;;;;;;;3.83;1.85;;;;;;;;;;4978144;28;20038;-84
2023/09/07 08:59:14;;;;;;;4.47;2.00;;;;;;;;;;4959285;28;20054;-84
2023/09/07 09:01:44;;;;;;;5.00;2.15;;;;;;;;;;4943974;28;20050;-84
2023/09/07 09:04:18;;;;;;;3.80;1.50;;;;;;;;;;4959790;28;20069;-86
2023/09/07 09:06:52;;;;;;;3.80;1.88;;;;;;;;;;4944482;28;20051;-86
2023/09/07 09:09:24;;;;;;;4.50;2.00;;;;;;;;;;4944047;28;20050;-84
2023/09/07 09:12:06;;;;;;;4.82;2.08;;;;;;;;;;4959436;28;20047;-84
2023/09/07 09:14:43;;;;;;;5.28;2.13;;;;;;;;;;4961039;28;20038;-83
2023/09/07 09:17:17;;;;;;;5.60;2.05;;;;;;;;;;4944587;28;20070;-85
2023/09/07 09:19:48;;;;;;;4.10;2.28;;;;;;;;;;4959811;28;20057;-84
2023/09/07 09:22:20;;;;;;;4.35;2.03;;;;;;;;;;4977465;28;20047;-84
2023/09/07 09:24:53;;;;;;;4.80;1.88;;;;;;;;;;4958812;28;20510;-84
2023/09/07 09:27:24;;;;;;;3.50;2.28;;;;;;;;;;4960705;28;20047;-82
2023/09/07 09:29:58;;;;;;;5.03;2.30;;;;;;;;;;4953738;28;20042;-82
2023/09/07 09:32:30;;;;;;;4.80;2.15;;;;;;;;;;4958386;28;20043;-83
2023/09/07 09:35:05;;;;;;;4.72;2.42;;;;;;;;;;4951235;29;20051;-84
2023/09/07 09:37:49;;;;;;;7.40;2.17;;;;;;;;;;4949798;28;20051;-84
2023/09/07 09:40:21;;;;;;;4.68;2.47;;;;;;;;;;4939071;29;20047;-84
2023/09/07 09:42:54;;;;;;;5.13;1.90;;;;;;;;;;4940233;29;20058;-83
2023/09/07 09:45:28;;;;;;;5.88;2.20;;;;;;;;;;4939359;29;20054;-86
2023/09/07 09:48:00;;;;;;;5.55;2.25;;;;;;;;;;4940970;29;20043;-84
2023/09/07 09:50:38;;;;;;;4.60;2.53;;;;;;;;;;4940463;29;20441;-84
2023/09/07 09:53:09;;;;;;;5.00;2.25;;;;;;;;;;4924351;29;20047;-84
2023/09/07 09:55:40;;;;;;;4.85;2.30;;;;;;;;;;4957302;29;20031;-85
2023/09/07 09:58:11;;;;;;;4.00;2.08;;;;;;;;;;4940127;29;20051;-85
2023/09/07 10:00:48;;;;;;;3.47;2.13;;;;;;;;;;4939278;29;20047;-87
2023/09/07 10:03:26;;;;;;;3.70;1.80;;;;;;;;;;4939603;29;20054;-86
2023/09/07 10:06:23;;;;;;;4.05;1.77;;;;;;;;;;4956952;29;20035;-84
2023/09/07 10:09:06;;;;;;;6.55;2.35;;;;;;;;;;4939262;29;20406;-84
2023/09/07 10:11:39;;;;;;;5.03;2.42;;;;;;;;;;4940784;29;20378;-84
2023/09/07 10:14:11;;;;;;;9.25;2.70;;;;;;;;;;4940115;29;20471;-84
2023/09/07 10:16:49;;;;;;;4.70;2.33;;;;;;;;;;4940295;29;20043;-84
2023/09/07 10:19:26;;;;;;;5.47;2.20;;;;;;;;;;4939705;29;20047;-85
2023/09/07 10:21:57;;;;;;;5.35;2.00;;;;;;;;;;4923681;29;20039;-85
2023/09/07 10:24:29;;;;;;;3.85;2.13;;;;;;;;;;4939126;29;20054;-86
2023/09/07 10:27:08;;;;;;;5.57;2.08;;;;;;;;;;4940226;29;20567;-84
2023/09/07 10:29:45;;;;;;;6.10;2.45;;;;;;;;;;4957021;29;20043;-83
2023/09/07 10:32:24;;;;;;;4.85;1.80;;;;;;;;;;4938648;29;20501;-82
2023/09/07 10:34:53;;;;;;;5.47;2.35;;;;;;;;;;4956503;29;20047;-82
2023/09/07 10:37:30;;;;;;;4.63;2.10;;;;;;;;;;4939616;29;20047;-81
2023/09/07 10:40:11;;;;;;;6.18;2.10;;;;;;;;;;4957056;28;20036;-84
2023/09/07 10:42:42;;;;;;;5.63;1.95;;;;;;;;;;4956572;28;20046;-84
2023/09/07 10:45:16;;;;;;;4.43;2.20;;;;;;;;;;4954721;28;20047;-85
2023/09/07 10:47:48;;;;;;;4.28;2.03;;;;;;;;;;4955465;28;20075;-85
2023/09/07 10:50:20;;;;;;;6.63;1.95;;;;;;;;;;4941815;28;20077;-83
2023/09/07 10:52:53;;;;;;;4.50;1.98;;;;;;;;;;4957447;28;20390;-85
2023/09/07 10:55:27;;;;;;;5.38;2.03;;;;;;;;;;4955428;28;20513;-85
2023/09/07 10:58:01;;;;;;;6.30;2.10;;;;;;;;;;4955601;28;20053;-84
2023/09/07 11:00:35;;;;;;;4.82;2.17;;;;;;;;;;4958937;28;20070;-85
2023/09/07 11:03:10;;;;;;;6.90;2.28;;;;;;;;;;4941996;28;20469;-85
2023/09/07 11:05:41;;;;;;;4.72;2.03;;;;;;;;;;4959024;28;20370;-84
2023/09/07 11:08:12;;;;;;;4.75;2.30;;;;;;;;;;4956802;28;20490;-85
2023/09/07 11:10:47;;;;;;;4.82;2.00;;;;;;;;;;4956483;28;20047;-85
2023/09/07 11:13:17;;;;;;;;;;;;;;;;;;4942931;28;20047;-85
2023/09/07 11:15:48;;;;;;;4.50;2.25;;;;;;;;;;4958546;28;19917;-84
2023/09/07 11:18:23;;;;;;;5.97;2.25;;;;;;;;;;4941735;28;20043;-83
2023/09/07 11:20:57;;;;;;;5.60;2.10;;;;;;;;;;4958596;28;20046;-84
2023/09/07 11:23:37;;;;;;;5.13;2.35;;;;;;;;;;4941630;28;20050;-85
2023/09/07 11:26:11;;;;;;;7.72;2.22;;;;;;;;;;4942252;28;20335;-83
2023/09/07 11:28:47;;;;;;;3.97;1.80;;;;;;;;;;4957292;28;20386;-84
2023/09/07 11:31:23;;;;;;;5.47;2.42;;;;;;;;;;4941307;28;20054;-84
2023/09/07 11:33:56;;;;;;;5.25;2.03;;;;;;;;;;4974649;28;20473;-85
2023/09/07 11:36:27;;;;;;;4.03;1.80;;;;;;;;;;4958254;28;20045;-85
2023/09/07 11:38:59;;;;;;;5.22;2.72;;;;;;;;;;4941720;28;20051;-85
2023/09/07 11:41:31;;;;;;;4.53;2.10;;;;;;;;;;4958512;28;20099;-84
2023/09/07 11:44:03;;;;;;;4.15;2.10;;;;;;;;;;4941054;28;20398;-85
2023/09/07 11:46:33;;;;;;;4.82;2.17;;;;;;;;;;4975171;28;20385;-85
2023/09/07 11:49:08;;;;;;;4.47;2.25;;;;;;;;;;4956848;28;20389;-83
2023/09/07 11:51:40;;;;;;;5.95;2.00;;;;;;;;;;4975069;28;20374;-84
2023/09/07 11:54:12;;;;;;;5.05;2.08;;;;;;;;;;4941475;28;20051;-85
2023/09/07 11:56:44;;;;;;;5.95;2.03;;;;;;;;;;4941080;28;20053;-84
2023/09/07 11:59:18;;;;;;;4.18;1.85;;;;;;;;;;4958415;28;20042;-84
2023/09/07 12:01:52;;;;;;;7.35;2.15;;;;;;;;;;4941165;28;20397;-84
2023/09/07 12:04:23;;;;;;;5.10;1.98;;;;;;;;;;4941246;28;20053;-85
2023/09/07 12:06:53;;;;;;;4.15;1.98;;;;;;;;;;4974828;28;20045;-84
2023/09/07 12:09:25;;;;;;;9.40;2.42;;;;;;;;;;4941369;28;20061;-85
2023/09/07 12:11:58;;;;;;;7.40;1.80;;;;;;;;;;4940355;28;20046;-84
2023/09/07 12:14:28;;;;;;;4.40;1.90;;;;;;;;;;4957993;28;20035;-83
2023/09/07 12:16:59;;;;;;;5.07;2.13;;;;;;;;;;4958167;28;20038;-83
2023/09/07 12:19:33;;;;;;;5.97;2.25;;;;;;;;;;4941395;28;20059;-86
2023/09/07 12:22:08;;;;;;;4.55;2.10;;;;;;;;;;4942660;28;20047;-84
2023/09/07 12:24:40;;;;;;;4.45;2.10;;;;;;;;;;4961025;28;20051;-83
2023/09/07 12:27:10;;;;;;;3.47;1.75;;;;;;;;;;4944352;28;20050;-83
2023/09/07 12:29:45;;;;;;;4.07;2.25;;;;;;;;;;4961946;28;20043;-84
2023/09/07 12:32:16;;;;;;;6.15;1.85;;;;;;;;;;4960209;28;20065;-84
2023/09/07 12:34:53;;;;;;;;;;;;;;;;;;4945161;28;20050;-85
2023/09/07 12:37:24;;;;;;;5.65;1.60;;;;;;;;;;4960112;28;19917;-84
2023/09/07 12:39:58;;;;;;;5.68;2.05;;;;;;;;;;4959893;28;20486;-85
2023/09/07 12:42:29;;;;;;;4.72;1.88;;;;;;;;;;4959815;28;20042;-84
2023/09/07 12:45:00;;;;;;;4.47;1.90;;;;;;;;;;4959933;28;20497;-85
2023/09/07 12:47:30;;;;;;;4.88;2.08;;;;;;;;;;4959975;28;20146;-84
2023/09/07 12:50:04;;;;;;;5.32;2.00;;;;;;;;;;4960347;28;20047;-83
2023/09/07 12:52:39;;;;;;;3.80;1.83;;;;;;;;;;4960823;28;20053;-85
2023/09/07 12:55:09;;;;;;;3.42;1.73;;;;;;;;;;4944248;28;20047;-84
2023/09/07 12:57:43;;;;;;;6.88;2.00;;;;;;;;;;4944878;28;20054;-84
2023/09/07 13:00:15;;;;;;;4.68;1.92;;;;;;;;;;4945445;28;20051;-84
2023/09/07 13:02:49;;;;;;;4.43;1.75;;;;;;;;;;5001702;28;20047;-85
2023/09/07 13:05:20;;;;;;;5.53;1.77;;;;;;;;;;4984679;28;20021;-86
2023/09/07 13:07:54;;;;;;;4.50;2.08;;;;;;;;;;4968381;28;20083;-87
2023/09/07 13:10:26;;;;;;;4.55;1.95;;;;;;;;;;4966307;28;20042;-85
2023/09/07 13:12:57;;;;;;;4.38;1.50;;;;;;;;;;4968195;28;20041;-86
2023/09/07 13:15:27;;;;;;;3.85;1.73;;;;;;;;;;4984164;28;20055;-83
2023/09/07 13:17:58;;;;;;;3.25;1.52;;;;;;;;;;4991858;28;20043;-82
2023/09/07 13:20:30;;;;;;;4.95;1.90;;;;;;;;;;4959556;28;20042;-83
2023/09/07 13:23:03;;;;;;;3.92;1.70;;;;;;;;;;4958435;28;20050;-82
2023/09/07 13:25:35;;;;;;;4.60;1.90;;;;;;;;;;4973707;28;20039;-81
2023/09/07 13:28:05;;;;;;;3.78;1.70;;;;;;;;;;4973920;28;20496;-82
2023/09/07 13:30:39;;;;;;;4.82;1.75;;;;;;;;;;4975308;28;20050;-82
2023/09/07 13:33:10;;;;;;;3.92;1.65;;;;;;;;;;4975528;28;20050;-82
2023/09/07 13:35:45;;;;;;;4.47;1.85;;;;;;;;;;4976417;28;20038;-82
2023/09/07 13:38:15;;;;;;;5.70;2.08;;;;;;;;;;4977109;28;20035;-83
2023/09/07 13:40:49;;;;;;;4.90;1.80;;;;;;;;;;4957861;28;20055;-82
2023/09/07 13:43:20;;;;;;;4.13;1.55;;;;;;;;;;4976557;28;20057;-83
2023/09/07 13:45:52;;;;;;;4.72;1.73;;;;;;;;;;4958295;28;20046;-82
2023/09/07 13:48:22;;;;;;;3.22;1.80;;;;;;;;;;4959652;28;20366;-82
2023/09/07 13:50:54;;;;;;;5.25;2.05;;;;;;;;;;4976675;28;20049;-82
2023/09/07 13:53:30;;;;;;;3.20;1.60;;;;;;;;;;4957406;28;20516;-84
2023/09/07 13:56:02;;;;;;;4.20;1.92;;;;;;;;;;4958074;28;20494;-83
2023/09/07 13:58:32;;;;;;;3.90;1.70;;;;;;;;;;4976192;28;20065;-83
2023/09/07 14:01:08;;;;;;;11.45;1.80;;;;;;;;;;4960253;28;20045;-82
2023/09/07 14:03:42;;;;;;;4.03;1.77;;;;;;;;;;4975958;28;20393;-82
2023/09/07 14:06:13;;;;;;;3.17;1.80;;;;;;;;;;4976250;28;20042;-82
2023/09/07 14:08:43;;;;;;;7.53;1.83;;;;;;;;;;4975998;28;20066;-82
2023/09/07 14:11:15;;;;;;;4.28;1.90;;;;;;;;;;4959222;28;20041;-82
2023/09/07 14:13:54;;;;;;;3.58;1.70;;;;;;;;;;4976198;28;20043;-83
2023/09/07 14:16:24;;;;;;;4.88;1.65;;;;;;;;;;4957474;28;20050;-81
2023/09/07 14:18:56;;;;;;;5.13;2.50;;;;;;;;;;4976092;28;20054;-83
2023/09/07 14:21:29;;;;;;;6.13;1.73;;;;;;;;;;4942505;28;20055;-83
2023/09/07 14:24:01;;;;;;;4.22;1.60;;;;;;;;;;4974441;28;20234;-81
2023/09/07 14:26:32;;;;;;;4.82;2.08;;;;;;;;;;4962057;28;20035;-82
2023/09/07 14:29:02;;;;;;;3.17;1.80;;;;;;;;;;4938649;29;20043;-83
2023/09/07 14:31:34;;;;;;;2.47;1.45;;;;;;;;;;4940292;29;20047;-82
2023/09/07 14:34:04;;;;;;;5.57;1.80;;;;;;;;;;4940180;29;20047;-82
2023/09/07 14:36:37;;;;;;;3.70;1.90;;;;;;;;;;4940214;29;20486;-83
2023/09/07 14:39:09;;;;;;;5.88;2.00;;;;;;;;;;4956288;29;20047;-82
2023/09/07 14:41:43;;;;;;;6.05;1.80;;;;;;;;;;4956346;29;20054;-81
2023/09/07 14:44:14;;;;;;;5.22;1.60;;;;;;;;;;4957098;29;20039;-82
2023/09/07 14:46:50;;;;;;;5.50;1.75;;;;;;;;;;4956583;28;20387;-84
2023/09/07 14:49:22;;;;;;;5.63;1.88;;;;;;;;;;4939336;29;20078;-84
2023/09/07 14:51:51;;;;;;;5.55;2.00;;;;;;;;;;4939542;29;20108;-83
2023/09/07 14:54:25;;;;;;;4.20;2.53;;;;;;;;;;4938821;29;20047;-83
2023/09/07 14:56:58;;;;;;;5.32;2.40;;;;;;;;;;4938661;29;20043;-83
2023/09/07 14:59:31;;;;;;;5.10;2.10;;;;;;;;;;4955989;29;20043;-83
2023/09/07 15:02:01;;;;;;;5.32;1.85;;;;;;;;;;4938616;29;20047;-84
2023/09/07 15:04:35;;;;;;;3.63;2.03;;;;;;;;;;4938737;29;20067;-83
2023/09/07 15:07:09;;;;;;;4.72;1.85;;;;;;;;;;4923820;29;20478;-82
2023/09/07 15:09:41;;;;;;;2.88;1.50;;;;;;;;;;4955308;28;20059;-83
2023/09/07 15:12:11;;;;;;;5.55;2.00;;;;;;;;;;4955933;28;20046;-83
2023/09/07 15:14:46;;;;;;;;;;;;;;;;;;4938544;29;20047;-83
2023/09/07 15:17:18;;;;;;;4.80;2.00;;;;;;;;;;4955745;29;19918;-81
2023/09/07 15:19:50;;;;;;;5.30;2.10;;;;;;;;;;4937789;29;20043;-82
2023/09/07 15:22:20;;;;;;;5.13;2.15;;;;;;;;;;4955895;29;20470;-83